Time,TemperatureF,DewpointF,PressureIn,WindDirection,WindDirectionDegrees,WindSpeedMPH,WindSpeedGustMPH,Humidity,HourlyPrecipIn,Conditions,Clouds,dailyrainin,SoftwareType,DateUTC
2013-02-27 00:11:00,49.0,39.0,-100.00,North,-999,-999.0,-999.0,67,0.00,,,0.00,,2013-02-27 08:11:00,
2013-02-27 00:21:00,49.0,39.0,-100.00,North,-999,-999.0,-999.0,67,0.00,,,0.00,,2013-02-27 08:21:00,
2013-02-27 00:31:00,49.0,39.0,-100.00,North,-999,-999.0,-999.0,67,0.00,,,0.00,,2013-02-27 08:31:00,
2013-02-27 00:41:00,49.0,39.0,-100.00,North,-999,-999.0,-999.0,67,0.00,,,0.00,,2013-02-27 08:41:00,
2013-02-27 01:11:00,47.0,39.0,-100.00,North,-999,-999.0,-999.0,73,0.00,,,-99.99,,2013-02-27 09:11:00,
2013-02-27 01:21:00,47.0,39.0,-100.00,North,-999,-999.0,-999.0,73,0.00,,,-99.99,,2013-02-27 09:21:00,
2013-02-27 01:32:00,47.0,39.0,-100.00,North,-999,-999.0,-999.0,73,0.00,,,-99.99,,2013-02-27 09:32:00,
2013-02-27 01:41:00,47.0,39.0,-100.00,North,-999,-999.0,-999.0,73,0.00,,,-99.99,,2013-02-27 09:41:00,
2013-02-27 02:12:00,47.0,39.0,-100.00,North,-999,-999.0,-999.0,72,0.00,,,0.00,,2013-02-27 10:12:00,
2013-02-27 02:21:00,47.0,39.0,-100.00,North,-999,-999.0,-999.0,72,0.00,,,0.00,,2013-02-27 10:21:00,
2013-02-27 02:32:00,47.0,39.0,-100.00,North,-999,-999.0,-999.0,72,0.00,,,0.00,,2013-02-27 10:32:00,
2013-02-27 02:42:00,47.0,39.0,-100.00,North,-999,-999.0,-999.0,72,0.00,,,0.00,,2013-02-27 10:42:00,
2013-02-27 03:12:00,46.0,40.0,-100.00,North,-999,-999.0,-999.0,79,0.00,,,0.00,,2013-02-27 11:12:00,
2013-02-27 03:22:00,46.0,40.0,-100.00,North,-999,-999.0,-999.0,79,0.00,,,0.00,,2013-02-27 11:22:00,
2013-02-27 03:31:00,46.0,40.0,-100.00,North,-999,-999.0,-999.0,79,0.00,,,0.00,,2013-02-27 11:31:00,
2013-02-27 03:41:00,46.0,40.0,-100.00,North,-999,-999.0,-999.0,79,0.00,,,0.00,,2013-02-27 11:41:00,
2013-02-27 04:12:00,46.0,39.0,-100.00,North,-999,-999.0,-999.0,77,0.00,,,0.00,,2013-02-27 12:12:00,
2013-02-27 04:22:00,46.0,39.0,-100.00,North,-999,-999.0,-999.0,77,0.00,,,0.00,,2013-02-27 12:22:00,
2013-02-27 04:32:00,46.0,39.0,-100.00,North,-999,-999.0,-999.0,77,0.00,,,0.00,,2013-02-27 12:32:00,
2013-02-27 04:42:00,46.0,39.0,-100.00,North,-999,-999.0,-999.0,77,0.00,,,0.00,,2013-02-27 12:42:00,
2013-02-27 05:11:00,47.0,40.0,-100.00,North,-999,-999.0,-999.0,78,0.00,,,0.00,,2013-02-27 13:11:00,
2013-02-27 05:22:00,47.0,40.0,-100.00,North,-999,-999.0,-999.0,78,0.00,,,0.00,,2013-02-27 13:22:00,
2013-02-27 05:32:00,47.0,40.0,-100.00,North,-999,-999.0,-999.0,78,0.00,,,0.00,,2013-02-27 13:32:00,
2013-02-27 05:42:00,47.0,40.0,-100.00,North,-999,-999.0,-999.0,78,0.00,,,0.00,,2013-02-27 13:42:00,
2013-02-27 06:12:00,47.0,42.0,-100.00,North,-999,-999.0,-999.0,82,0.00,,,0.00,,2013-02-27 14:12:00,
2013-02-27 06:21:00,47.0,42.0,-100.00,North,-999,-999.0,-999.0,82,0.00,,,0.00,,2013-02-27 14:21:00,
2013-02-27 06:31:00,47.0,42.0,-100.00,North,-999,-999.0,-999.0,82,0.00,,,0.00,,2013-02-27 14:31:00,
2013-02-27 06:42:00,47.0,42.0,-100.00,North,-999,-999.0,-999.0,82,0.00,,,0.00,,2013-02-27 14:42:00,
2013-02-27 07:12:00,46.0,42.0,-100.00,North,-999,-999.0,-999.0,85,0.00,,,0.00,,2013-02-27 15:12:00,
2013-02-27 07:22:00,46.0,42.0,-100.00,North,-999,-999.0,-999.0,85,0.00,,,0.00,,2013-02-27 15:22:00,
2013-02-27 07:32:00,46.0,42.0,-100.00,North,-999,-999.0,-999.0,85,0.00,,,0.00,,2013-02-27 15:32:00,
2013-02-27 07:41:00,46.0,42.0,-100.00,North,-999,-999.0,-999.0,85,0.00,,,0.00,,2013-02-27 15:41:00,
2013-02-27 08:11:00,48.0,44.0,-100.00,North,-999,-999.0,-999.0,86,0.00,,,0.00,,2013-02-27 16:11:00,
2013-02-27 08:22:00,48.0,44.0,-100.00,North,-999,-999.0,-999.0,86,0.00,,,0.00,,2013-02-27 16:22:00,
2013-02-27 08:32:00,48.0,44.0,-100.00,North,-999,-999.0,-999.0,86,0.00,,,0.00,,2013-02-27 16:32:00,
2013-02-27 08:41:00,48.0,44.0,-100.00,North,-999,-999.0,-999.0,86,0.00,,,0.00,,2013-02-27 16:41:00,
2013-02-27 09:11:00,50.0,44.0,-100.00,North,-999,-999.0,-999.0,79,0.00,,,0.00,,2013-02-27 17:11:00,
2013-02-27 09:21:00,50.0,44.0,-100.00,North,-999,-999.0,-999.0,79,0.00,,,0.00,,2013-02-27 17:21:00,
2013-02-27 09:32:00,50.0,44.0,-100.00,North,-999,-999.0,-999.0,79,0.00,,,0.00,,2013-02-27 17:32:00,
2013-02-27 09:41:00,50.0,44.0,-100.00,North,-999,-999.0,-999.0,79,0.00,,,0.00,,2013-02-27 17:41:00,
2013-02-27 10:11:00,54.0,44.0,-100.00,North,-999,-999.0,-999.0,70,0.00,,,0.00,,2013-02-27 18:11:00,
2013-02-27 10:22:00,54.0,44.0,-100.00,North,-999,-999.0,-999.0,70,0.00,,,0.00,,2013-02-27 18:22:00,
2013-02-27 10:32:00,54.0,44.0,-100.00,North,-999,-999.0,-999.0,70,0.00,,,0.00,,2013-02-27 18:32:00,
2013-02-27 10:42:00,54.0,44.0,-100.00,North,-999,-999.0,-999.0,70,0.00,,,0.00,,2013-02-27 18:42:00,
2013-02-27 11:11:00,57.0,45.0,-100.00,North,-999,-999.0,-999.0,65,0.00,,,0.00,,2013-02-27 19:11:00,
2013-02-27 11:21:00,57.0,45.0,-100.00,North,-999,-999.0,-999.0,65,0.00,,,0.00,,2013-02-27 19:21:00,
2013-02-27 11:32:00,57.0,45.0,-100.00,North,-999,-999.0,-999.0,65,0.00,,,0.00,,2013-02-27 19:32:00,
2013-02-27 11:41:00,57.0,45.0,-100.00,North,-999,-999.0,-999.0,65,0.00,,,0.00,,2013-02-27 19:41:00,
2013-02-27 12:11:00,58.0,45.0,-100.00,North,-999,-999.0,-999.0,61,0.00,,,0.00,,2013-02-27 20:11:00,
2013-02-27 12:21:00,58.0,45.0,-100.00,North,-999,-999.0,-999.0,61,0.00,,,0.00,,2013-02-27 20:21:00,
2013-02-27 12:31:00,58.0,45.0,-100.00,North,-999,-999.0,-999.0,61,0.00,,,0.00,,2013-02-27 20:31:00,
2013-02-27 12:41:00,58.0,45.0,-100.00,North,-999,-999.0,-999.0,61,0.00,,,0.00,,2013-02-27 20:41:00,
2013-02-27 13:11:00,61.0,44.0,-100.00,North,-999,-999.0,-999.0,52,0.00,,,-99.99,,2013-02-27 21:11:00,
2013-02-27 13:21:00,61.0,44.0,-100.00,North,-999,-999.0,-999.0,52,0.00,,,-99.99,,2013-02-27 21:21:00,
2013-02-27 13:31:00,61.0,44.0,-100.00,North,-999,-999.0,-999.0,52,0.00,,,-99.99,,2013-02-27 21:31:00,
2013-02-27 13:41:00,61.0,44.0,-100.00,North,-999,-999.0,-999.0,52,0.00,,,-99.99,,2013-02-27 21:41:00,
2013-02-27 14:11:00,61.0,44.0,-100.00,North,-999,-999.0,-999.0,54,0.00,,,0.00,,2013-02-27 22:11:00,
2013-02-27 14:21:00,61.0,44.0,-100.00,North,-999,-999.0,-999.0,54,0.00,,,0.00,,2013-02-27 22:21:00,
2013-02-27 14:31:00,61.0,44.0,-100.00,North,-999,-999.0,-999.0,54,0.00,,,0.00,,2013-02-27 22:31:00,
2013-02-27 14:41:00,61.0,44.0,-100.00,North,-999,-999.0,-999.0,54,0.00,,,0.00,,2013-02-27 22:41:00,
2013-02-27 16:11:00,59.0,39.0,-100.00,North,-999,-999.0,-999.0,47,-99.99,,,0.00,,2013-02-28 00:11:00,
2013-02-27 16:21:00,59.0,39.0,-100.00,North,-999,-999.0,-999.0,47,-99.99,,,0.00,,2013-02-28 00:21:00,
2013-02-27 16:32:00,59.0,39.0,-100.00,North,-999,-999.0,-999.0,47,-99.99,,,0.00,,2013-02-28 00:32:00,
2013-02-27 16:42:00,59.0,39.0,-100.00,North,-999,-999.0,-999.0,47,-99.99,,,0.00,,2013-02-28 00:42:00,
2013-02-27 17:11:00,57.0,35.0,-100.00,North,-999,-999.0,-999.0,43,0.00,,,0.00,,2013-02-28 01:11:00,
2013-02-27 17:21:00,57.0,35.0,-100.00,North,-999,-999.0,-999.0,43,0.00,,,0.00,,2013-02-28 01:21:00,
2013-02-27 17:31:00,57.0,35.0,-100.00,North,-999,-999.0,-999.0,43,0.00,,,0.00,,2013-02-28 01:31:00,
2013-02-27 17:41:00,57.0,35.0,-100.00,North,-999,-999.0,-999.0,43,0.00,,,0.00,,2013-02-28 01:41:00,
2013-02-27 18:11:00,53.0,41.0,-100.00,North,-999,-999.0,-999.0,63,0.00,,,0.00,,2013-02-28 02:11:00,
2013-02-27 18:22:00,53.0,41.0,-100.00,North,-999,-999.0,-999.0,63,0.00,,,0.00,,2013-02-28 02:22:00,
2013-02-27 18:31:00,53.0,41.0,-100.00,North,-999,-999.0,-999.0,63,0.00,,,0.00,,2013-02-28 02:31:00,
2013-02-27 18:41:00,53.0,41.0,-100.00,North,-999,-999.0,-999.0,63,0.00,,,0.00,,2013-02-28 02:41:00,
2013-02-27 19:11:00,52.0,43.0,-100.00,North,-999,-999.0,-999.0,70,0.00,,,0.00,,2013-02-28 03:11:00,
2013-02-27 19:21:00,52.0,43.0,-100.00,North,-999,-999.0,-999.0,70,0.00,,,0.00,,2013-02-28 03:21:00,
2013-02-27 19:31:00,52.0,43.0,-100.00,North,-999,-999.0,-999.0,70,0.00,,,0.00,,2013-02-28 03:31:00,
2013-02-27 19:41:00,52.0,43.0,-100.00,North,-999,-999.0,-999.0,70,0.00,,,0.00,,2013-02-28 03:41:00,
2013-02-27 20:11:00,50.0,45.0,-100.00,North,-999,-999.0,-999.0,83,0.00,,,0.00,,2013-02-28 04:11:00,
2013-02-27 20:21:00,50.0,45.0,-100.00,North,-999,-999.0,-999.0,83,0.00,,,0.00,,2013-02-28 04:21:00,
2013-02-27 20:31:00,50.0,45.0,-100.00,North,-999,-999.0,-999.0,83,0.00,,,0.00,,2013-02-28 04:31:00,
2013-02-27 20:41:00,50.0,45.0,-100.00,North,-999,-999.0,-999.0,83,0.00,,,0.00,,2013-02-28 04:41:00,
2013-02-27 21:11:00,50.0,46.0,-100.00,North,-999,-999.0,-999.0,85,0.00,,,0.00,,2013-02-28 05:11:00,
2013-02-27 21:22:00,50.0,46.0,-100.00,North,-999,-999.0,-999.0,85,0.00,,,0.00,,2013-02-28 05:22:00,
2013-02-27 21:31:00,50.0,46.0,-100.00,North,-999,-999.0,-999.0,85,0.00,,,0.00,,2013-02-28 05:31:00,
2013-02-27 21:42:00,50.0,46.0,-100.00,North,-999,-999.0,-999.0,85,0.00,,,0.00,,2013-02-28 05:42:00,
2013-02-27 22:11:00,50.0,46.0,-100.00,North,-999,-999.0,-999.0,85,0.00,,,0.00,,2013-02-28 06:11:00,
2013-02-27 22:22:00,50.0,46.0,-100.00,North,-999,-999.0,-999.0,85,0.00,,,0.00,,2013-02-28 06:22:00,
2013-02-27 22:32:00,50.0,46.0,-100.00,North,-999,-999.0,-999.0,85,0.00,,,0.00,,2013-02-28 06:32:00,
2013-02-27 22:41:00,50.0,46.0,-100.00,North,-999,-999.0,-999.0,85,0.00,,,0.00,,2013-02-28 06:41:00,
2013-02-27 23:11:00,50.0,46.0,-100.00,North,-999,-999.0,-999.0,86,0.00,,,0.00,,2013-02-28 07:11:00,
2013-02-27 23:21:00,50.0,46.0,-100.00,North,-999,-999.0,-999.0,86,0.00,,,0.00,,2013-02-28 07:21:00,
2013-02-27 23:31:00,50.0,46.0,-100.00,North,-999,-999.0,-999.0,86,0.00,,,0.00,,2013-02-28 07:31:00,
2013-02-27 23:41:00,50.0,46.0,-100.00,North,-999,-999.0,-999.0,86,0.00,,,0.00,,2013-02-28 07:41:00,